NCAR-RAP Real-Time Weather Data

Output produced by METARs form (20 February 2019  17:43 UTC)
found at http://weather.rap.ucar.edu/surface/
 
RJCK 201100Z 03006KT 9999 FEW015 BKN035 M01/M05 Q1015
RJCK 201000Z 03009KT 9999 FEW015 BKN035 M01/M05 Q1015
RJCK 200900Z 03007KT 9999 FEW015 BKN050 M01/M05 Q1014
RJCK 200800Z 03008KT 9999 FEW015 BKN050 M01/M04 Q1013
RJCK 200700Z 05008KT 9999 FEW015 BKN040 01/M05 Q1013
RJCK 200600Z 02005KT 360V060 9999 FEW010 BKN030 02/M03 Q1013
RJCK 200500Z 04004KT 360V090 9999 FEW020 SCT035 03/M04 Q1012
RJCK 200400Z 16004KT 9999 FEW030 BKN050 02/M04 Q1012
RJCK 200300Z 16008KT 9999 FEW030 BKN050 02/M04 Q1012
RJCK 200200Z VRB02KT 9999 FEW030 03/M03 Q1012
RJCK 200100Z VRB01KT 9999 FEW040 03/M04 Q1012
RJCK 200000Z 16002KT 9999 FEW040 BKN100 02/M04 Q1012
RJCK 192300Z 36003KT 9999 FEW040 BKN100 00/M08 Q1012
RJCK 192200Z 33003KT 9999 FEW030 BKN100 M03/M08 Q1012
RJCK 192145Z 34003KT 9999 FEW030 SCT100 M01/M08 Q1012 RMK 1CU030 4AC100 A2990
RJCK 191100Z 34006KT 9999 FEW030 BKN100 M02/M06 Q1016
RJCK 191000Z 01005KT 9999 FEW030 BKN120 M01/M06 Q1016
RJCK 190900Z 35004KT 9999 FEW030 BKN120 M01/M06 Q1017
RJCK 190800Z 03003KT 9999 FEW030 BKN140 M02/M05 Q1017
RJCK 190700Z 05005KT 9999 FEW030 BKN150 M02/M04 Q1017
RJCK 190600Z VRB02KT 9999 FEW030 BKN120 M01/M06 Q1017
RJCK 190500Z 19006KT 9999 FEW030 BKN150 M02/M05 Q1018
RJCK 190400Z 18005KT 150V210 9999 FEW030 BKN160 M03/M05 Q1018
RJCK 190300Z 19009KT 9999 FEW030 BKN170 M03/M06 Q1019
RJCK 190200Z 20005KT 9999 FEW030 BKN/// M03/M07 Q1021
RJCK 190100Z 18004KT 9999 FEW030 BKN/// M02/M08 Q1021
RJCK 190000Z 33005KT 9999 FEW030 BKN/// M07/M10 Q1022
RJCK 182300Z 34006KT 9999 FEW030 BKN/// M08/M10 Q1022
RJCK 182200Z 32006KT 9999 FEW030 BKN/// M10/M12 Q1022
RJCK 182145Z 32004KT 300V020 9999 FEW030 BKN/// M08/M11 Q1022 RMK 1CU030 A3020
RJCK 181100Z 35002KT 9999 FEW030 M05/M09 Q1021
RJCK 181000Z 05003KT 010V080 9999 FEW030 M03/M08 Q1020
RJCK 180900Z 08004KT 9999 FEW030 M03/M08 Q1019
RJCK 180800Z 09005KT 9999 FEW030 SCT060 M01/M07 Q1018
RJCK 180700Z 09007KT 060V120 9999 FEW030 SCT060 M01/M06 Q1017
RJCK 180600Z 10007KT 070V140 9999 FEW030 SCT060 M00/M07 Q1016